Time;durP1;ratioP1;P1;durP2;ratioP2;P2;SDS_P1;SDS_P2;PMS_P1;PMS_P2;Temp;Humidity;BMP_temperature;BMP_pressure;BME280_temperature;BME280_humidity;BME280_pressure;Samples;Min_cycle;Max_cycle;Signal;HPM_P1;HPM_P2
2022/05/14 00:01:38;;;;;;;;;;;;;;;22.05;49.61;99639.81;4451409;32;33505;-67
2022/05/14 00:04:07;;;;;;;;;;;;;;;22.18;49.32;99639.97;4448462;32;35160;-67
2022/05/14 00:06:35;;;;;;;;;;;;;;;22.29;49.02;99644.09;4453549;32;33263;-68
2022/05/14 00:09:05;;;;;;;;;;;;;;;22.33;48.91;99648.97;4449953;32;34518;-67
2022/05/14 00:14:21;;;;;;;;;;;;;;;21.49;51.23;99644.94;4443424;32;34265;-68
2022/05/14 00:16:50;;;;;;;;;;;;;;;21.31;52.10;99653.44;4453778;32;32955;-66
2022/05/14 00:19:18;;;;;;;;;;;;;;;21.73;50.86;99651.97;4449255;32;34222;-66
2022/05/14 00:21:46;;;;;;;;;;;;;;;21.14;52.47;99652.75;4449571;32;34474;-67
2022/05/14 00:24:14;;;;;;;;;;;;;;;20.62;54.25;99659.00;4450481;32;35316;-67
2022/05/14 00:26:42;;;;;;;;;;;;;;;20.71;53.86;99652.47;4451267;32;34425;-67
2022/05/14 00:29:10;;;;;;;;;;;;;;;20.95;53.62;99656.84;4450405;32;35280;-70
2022/05/14 00:31:38;;;;;;;;;;;;;;;20.50;54.36;99650.37;4447440;32;34176;-68
2022/05/14 00:34:05;;;;;;;;;;;;;;;20.92;53.40;99640.91;4456081;32;35173;-67
2022/05/14 00:36:34;;;;;;;;;;;;;;;20.40;55.14;99645.19;4453035;32;35126;-70
2022/05/14 00:39:03;;;;;;;;;;;;;;;20.58;54.62;99639.50;4446809;32;34221;-70
2022/05/14 00:41:32;;;;;;;;;;;;;;;20.43;54.90;99642.09;4445442;32;33520;-69
2022/05/14 00:44:00;;;;;;;;;;;;;;;20.51;55.11;99638.50;4447437;32;35392;-68
2022/05/14 00:46:33;;;;;;;;;;;;;;;20.55;54.75;99642.56;4439679;32;34320;-70
2022/05/14 00:49:01;;;;;;;;;;;;;;;20.99;53.64;99647.28;4446841;32;33069;-69
2022/05/14 00:51:35;;;;;;;;;;;;;;;20.18;55.89;99654.16;4447912;32;33204;-67
2022/05/14 00:54:07;;;;;;;;;;;;;;;20.42;55.21;99653.19;4448000;32;33019;-67
2022/05/14 00:56:37;;;;;;;;;;;;;;;20.50;55.80;99655.81;4446547;32;32996;-67
2022/05/14 00:59:10;;;;;;;;;;;;;;;20.99;54.00;99660.03;4441596;32;33879;-69
2022/05/14 01:01:38;;;;;;;;;;;;;;;21.15;53.24;99655.31;4445375;32;34558;-67
2022/05/14 01:04:06;;;;;;;;;;;;;;;21.49;52.26;99659.41;4448110;32;34662;-68
2022/05/14 01:06:35;;;;;;;;;;;;;;;21.70;51.51;99660.53;4441375;32;34115;-69
2022/05/14 01:09:04;;;;;;;;;;;;;;;22.05;50.68;99658.87;4446346;32;33006;-71
2022/05/14 01:11:34;;;;;;;;;;;;;;;22.10;50.54;99659.16;4446552;32;33038;-66
2022/05/14 01:14:03;;;;;;;;;;;;;;;22.13;50.46;99664.22;4447201;32;34308;-70
2022/05/14 01:16:32;;;;;;;;;;;;;;;22.15;50.14;99664.03;4444205;32;33222;-69
2022/05/14 01:19:00;;;;;;;;;;;;;;;20.90;53.57;99659.28;4449091;32;34551;-68
2022/05/14 01:21:49;;;;;;;;;;;;;;;21.76;51.31;99668.78;4452688;32;33395;-68
2022/05/14 01:27:17;;;;;;;;;;;;;;;22.23;49.77;99663.97;4445102;32;33121;-72
2022/05/14 01:29:45;;;;;;;;;;;;;;;21.83;51.02;99658.00;4440662;32;34840;-69
2022/05/14 01:32:13;;;;;;;;;;;;;;;22.00;50.43;99655.91;4447497;32;33512;-69
2022/05/14 01:34:41;;;;;;;;;;;;;;;21.91;50.65;99654.31;4449074;32;33060;-67
2022/05/14 01:37:10;;;;;;;;;;;;;;;21.35;52.31;99658.37;4448970;32;36225;-68
2022/05/14 01:39:38;;;;;;;;;;;;;;;21.82;51.04;99659.00;4451418;32;34163;-69
2022/05/14 01:42:06;;;;;;;;;;;;;;;21.62;51.69;99666.91;4447051;32;32182;-71
2022/05/14 01:44:34;;;;;;;;;;;;;;;21.78;51.33;99661.28;4446082;32;34203;-71
2022/05/14 01:47:03;;;;;;;;;;;;;;;21.65;51.53;99668.44;4442571;32;33352;-70
2022/05/14 01:49:31;;;;;;;;;;;;;;;21.67;51.37;99669.06;4449281;32;34302;-68
2022/05/14 01:52:00;;;;;;;;;;;;;;;21.57;51.70;99669.34;4446538;32;33607;-68
2022/05/14 01:54:27;;;;;;;;;;;;;;;21.69;51.39;99667.84;4447390;32;33333;-69
2022/05/14 01:56:56;;;;;;;;;;;;;;;21.56;51.68;99656.78;4447733;32;33517;-66
2022/05/14 01:59:26;;;;;;;;;;;;;;;21.84;50.94;99652.34;4449829;32;34304;-66
2022/05/14 02:01:54;;;;;;;;;;;;;;;21.60;51.71;99655.34;4446676;32;32148;-64
2022/05/14 02:04:22;;;;;;;;;;;;;;;21.80;51.05;99658.37;4449630;32;35361;-64
2022/05/14 02:06:49;;;;;;;;;;;;;;;21.39;52.05;99662.41;4446373;32;34025;-64
2022/05/14 02:09:19;;;;;;;;;;;;;;;21.53;51.80;99648.97;4448010;32;34892;-64
2022/05/14 02:11:48;;;;;;;;;;;;;;;21.21;52.76;99663.75;4449663;32;33246;-67
2022/05/14 02:14:16;;;;;;;;;;;;;;;21.45;52.00;99655.38;4444135;32;34361;-64
2022/05/14 02:16:44;;;;;;;;;;;;;;;21.56;51.70;99657.63;4446967;32;34007;-64
2022/05/14 02:19:12;;;;;;;;;;;;;;;21.26;52.38;99661.34;4444181;32;33302;-68
2022/05/14 02:21:41;;;;;;;;;;;;;;;21.42;52.10;99665.78;4446888;32;32851;-64
2022/05/14 02:24:09;;;;;;;;;;;;;;;21.39;52.08;99667.00;4448891;32;34820;-64
2022/05/14 02:26:37;;;;;;;;;;;;;;;21.38;52.20;99662.59;4448464;32;33202;-65
2022/05/14 02:29:05;;;;;;;;;;;;;;;21.20;52.73;99653.91;4447318;32;34175;-66
2022/05/14 02:31:34;;;;;;;;;;;;;;;21.12;52.88;99655.69;4444300;32;33626;-64
2022/05/14 02:34:02;;;;;;;;;;;;;;;21.31;52.27;99659.72;4446251;32;34061;-65
2022/05/14 02:36:43;;;;;;;;;;;;;;;21.30;52.27;99665.37;4447643;32;33107;-64
2022/05/14 02:39:21;;;;;;;;;;;;;;;21.16;52.56;99667.88;4440850;32;33947;-65
2022/05/14 02:41:49;;;;;;;;;;;;;;;21.32;52.13;99666.03;4446999;32;33250;-64
2022/05/14 02:44:19;;;;;;;;;;;;;;;21.33;52.15;99671.28;4439215;32;33910;-66
2022/05/14 02:46:47;;;;;;;;;;;;;;;21.21;52.45;99669.19;4446915;32;34396;-64
2022/05/14 02:49:16;;;;;;;;;;;;;;;21.26;52.41;99669.50;4451299;32;33996;-64
2022/05/14 02:51:45;;;;;;;;;;;;;;;21.26;52.40;99670.34;4449772;32;34248;-65
2022/05/14 02:54:15;;;;;;;;;;;;;;;20.97;53.31;99676.56;4450766;32;34261;-67
2022/05/14 02:56:44;;;;;;;;;;;;;;;21.12;52.76;99680.19;4448717;32;34529;-65
2022/05/14 02:59:13;;;;;;;;;;;;;;;21.12;52.95;99682.03;4450788;32;33812;-67
2022/05/14 03:01:50;;;;;;;;;;;;;;;21.24;52.53;99685.16;4449836;32;33307;-67
2022/05/14 03:04:22;;;;;;;;;;;;;;;20.90;53.63;99687.34;4440563;32;34199;-64
2022/05/14 03:06:53;;;;;;;;;;;;;;;20.67;54.10;99681.91;4451378;32;34103;-63
2022/05/14 03:09:24;;;;;;;;;;;;;;;21.03;53.25;99686.72;4450574;32;33219;-63
2022/05/14 03:11:53;;;;;;;;;;;;;;;21.15;53.05;99685.25;4448995;32;33889;-68
2022/05/14 03:14:22;;;;;;;;;;;;;;;21.14;53.03;99688.16;4448888;32;32808;-65
2022/05/14 03:16:51;;;;;;;;;;;;;;;21.14;52.92;99690.88;4450999;32;33229;-65
2022/05/14 03:19:20;;;;;;;;;;;;;;;20.90;53.72;99698.22;4449610;32;33927;-65
2022/05/14 03:21:51;;;;;;;;;;;;;;;20.97;53.37;99700.22;4447006;32;33748;-68
2022/05/14 03:24:22;;;;;;;;;;;;;;;20.83;53.79;99705.41;4445967;32;32763;-66
2022/05/14 03:26:57;;;;;;;;;;;;;;;21.08;53.12;99705.19;4447165;32;33181;-71
2022/05/14 03:29:28;;;;;;;;;;;;;;;20.90;53.67;99713.69;4450082;32;35293;-68
2022/05/14 03:31:57;;;;;;;;;;;;;;;20.72;54.27;99713.16;4451960;32;32536;-67
2022/05/14 03:34:26;;;;;;;;;;;;;;;20.80;53.96;99719.37;4451235;32;33102;-66
2022/05/14 03:36:55;;;;;;;;;;;;;;;20.80;54.06;99713.06;4449176;32;32573;-69
2022/05/14 03:39:24;;;;;;;;;;;;;;;21.01;53.37;99726.87;4451921;32;33783;-66
2022/05/14 03:41:53;;;;;;;;;;;;;;;21.00;53.33;99729.78;4449547;32;32205;-67
2022/05/14 03:44:24;;;;;;;;;;;;;;;21.08;53.10;99725.09;4452252;32;34149;-65
2022/05/14 03:46:52;;;;;;;;;;;;;;;21.02;53.20;99723.09;4448228;32;34965;-66
2022/05/14 03:49:23;;;;;;;;;;;;;;;21.14;52.97;99723.53;4451175;32;34995;-65
2022/05/14 03:51:52;;;;;;;;;;;;;;;21.23;52.84;99724.31;4447571;32;33065;-67
2022/05/14 03:54:22;;;;;;;;;;;;;;;21.27;52.84;99729.19;4450126;32;34593;-68
2022/05/14 03:56:52;;;;;;;;;;;;;;;21.43;52.49;99728.22;4451151;32;33016;-67
2022/05/14 03:59:21;;;;;;;;;;;;;;;21.47;52.34;99734.13;4444976;32;34021;-68
2022/05/14 04:01:49;;;;;;;;;;;;;;;21.11;53.92;99734.78;4450410;32;33312;-69
2022/05/14 04:04:19;;;;;;;;;;;;;;;21.31;52.74;99740.53;4451878;32;34282;-70
2022/05/14 04:06:48;;;;;;;;;;;;;;;21.18;53.29;99743.88;4449048;32;32929;-69
2022/05/14 04:09:17;;;;;;;;;;;;;;;21.28;53.25;99754.53;4445143;32;34449;-66
2022/05/14 04:11:51;;;;;;;;;;;;;;;21.36;53.06;99760.78;4451715;32;32158;-67
2022/05/14 04:14:20;;;;;;;;;;;;;;;20.81;54.31;99753.72;4446493;32;33978;-67
2022/05/14 04:16:50;;;;;;;;;;;;;;;20.79;54.47;99760.34;4451517;32;32924;-68
2022/05/14 04:19:21;;;;;;;;;;;;;;;20.77;55.22;99762.41;4450488;32;34564;-66
2022/05/14 04:21:50;;;;;;;;;;;;;;;21.37;53.22;99764.34;4444927;32;31904;-69
2022/05/14 04:24:18;;;;;;;;;;;;;;;21.01;53.88;99767.69;4449899;32;35276;-68
2022/05/14 04:26:46;;;;;;;;;;;;;;;21.05;54.12;99768.16;4450286;32;33918;-71
2022/05/14 04:29:14;;;;;;;;;;;;;;;21.41;52.87;99779.28;4451587;32;34134;-67
2022/05/14 04:31:43;;;;;;;;;;;;;;;21.06;54.08;99775.28;4452280;32;34442;-67
2022/05/14 04:34:12;;;;;;;;;;;;;;;20.73;55.25;99782.81;4447855;32;34112;-67
2022/05/14 04:36:41;;;;;;;;;;;;;;;21.14;54.04;99781.50;4451071;32;34649;-67
2022/05/14 04:39:10;;;;;;;;;;;;;;;21.20;53.98;99781.81;4449173;32;32880;-68
2022/05/14 04:41:38;;;;;;;;;;;;;;;20.98;54.47;99789.81;4450795;32;32280;-65
2022/05/14 04:44:13;;;;;;;;;;;;;;;21.13;53.96;99793.44;4449435;32;34229;-68
2022/05/14 04:46:42;;;;;;;;;;;;;;;21.36;53.29;99792.59;4450790;32;35410;-71
2022/05/14 04:49:11;;;;;;;;;;;;;;;21.37;53.18;99797.00;4444232;32;32854;-68
2022/05/14 04:51:40;;;;;;;;;;;;;;;21.21;53.71;99799.84;4449208;32;32200;-69
2022/05/14 04:54:08;;;;;;;;;;;;;;;21.61;52.63;99804.97;4449659;32;34960;-69
2022/05/14 04:56:36;;;;;;;;;;;;;;;21.75;52.33;99807.91;4451701;32;34886;-67
2022/05/14 04:59:05;;;;;;;;;;;;;;;21.54;52.64;99805.88;4450093;32;34318;-66
2022/05/14 05:01:34;;;;;;;;;;;;;;;21.55;52.67;99808.44;4448942;32;33340;-69
2022/05/14 05:04:03;;;;;;;;;;;;;;;22.02;51.68;99809.16;4451252;32;34314;-69
2022/05/14 05:06:31;;;;;;;;;;;;;;;21.62;52.76;99812.09;4449413;32;34537;-70
2022/05/14 05:08:59;;;;;;;;;;;;;;;21.84;51.96;99812.25;4449363;32;33279;-71
2022/05/14 05:11:27;;;;;;;;;;;;;;;21.71;52.42;99823.78;4451259;32;33709;-67
2022/05/14 05:13:56;;;;;;;;;;;;;;;21.50;53.21;99821.75;4449288;32;35213;-64
2022/05/14 05:16:25;;;;;;;;;;;;;;;22.08;51.52;99817.41;4449682;32;34012;-66
2022/05/14 05:18:54;;;;;;;;;;;;;;;22.09;51.36;99819.13;4449254;32;34041;-65
2022/05/14 05:21:22;;;;;;;;;;;;;;;21.53;52.89;99826.81;4449102;32;33361;-66
2022/05/14 05:23:50;;;;;;;;;;;;;;;22.21;51.05;99826.84;4449716;32;34207;-64
2022/05/14 05:26:18;;;;;;;;;;;;;;;22.37;50.24;99829.38;4448528;32;34424;-67
2022/05/14 05:28:47;;;;;;;;;;;;;;;22.05;50.86;99833.28;4447681;32;34327;-66
2022/05/14 05:31:15;;;;;;;;;;;;;;;22.51;49.38;99835.88;4450190;32;34136;-67
2022/05/14 05:33:43;;;;;;;;;;;;;;;22.24;49.61;99840.94;4449218;32;34139;-65
2022/05/14 05:36:12;;;;;;;;;;;;;;;22.07;49.30;99837.53;4450960;32;33291;-66
2022/05/14 05:38:40;;;;;;;;;;;;;;;22.62;48.66;99840.84;4450417;32;34217;-65
2022/05/14 05:41:08;;;;;;;;;;;;;;;22.72;49.00;99841.37;4449230;32;32384;-69
2022/05/14 05:43:37;;;;;;;;;;;;;;;22.47;48.52;99849.06;4445791;32;33727;-70
2022/05/14 05:46:05;;;;;;;;;;;;;;;22.32;48.46;99850.94;4446562;32;34404;-69
2022/05/14 05:48:34;;;;;;;;;;;;;;;22.17;48.31;99855.53;4450083;32;33895;-67
2022/05/14 05:51:02;;;;;;;;;;;;;;;22.30;47.76;99851.09;4448412;32;33487;-65
2022/05/14 05:59:04;;;;;;;;;;;;;;;22.08;47.99;99861.03;4447826;32;34469;-68
2022/05/14 06:01:33;;;;;;;;;;;;;;;21.96;48.22;99858.94;4450246;32;33652;-66
2022/05/14 06:04:02;;;;;;;;;;;;;;;22.55;46.52;99864.47;4448148;32;33151;-69
2022/05/14 06:06:31;;;;;;;;;;;;;;;22.27;46.60;99862.38;4443977;32;34443;-66
2022/05/14 06:09:00;;;;;;;;;;;;;;;22.62;46.39;99865.38;4446110;32;35245;-68
2022/05/14 06:11:31;;;;;;;;;;;;;;;22.54;45.27;99857.31;4448581;32;33239;-69
2022/05/14 06:13:59;;;;;;;;;;;;;;;22.24;45.51;99864.66;4449570;32;34032;-67
2022/05/14 06:16:27;;;;;;;;;;;;;;;22.21;44.09;99870.47;4444714;32;35424;-67
2022/05/14 06:18:57;;;;;;;;;;;;;;;22.08;45.59;99869.19;4448097;32;34068;-69
2022/05/14 06:21:27;;;;;;;;;;;;;;;21.54;44.55;99868.50;4448205;32;32279;-64
2022/05/14 06:23:56;;;;;;;;;;;;;;;22.04;44.09;99867.03;4449741;32;32796;-65
2022/05/14 06:26:26;;;;;;;;;;;;;;;21.69;46.13;99874.84;4448483;32;35102;-64
2022/05/14 06:28:54;;;;;;;;;;;;;;;22.08;46.47;99876.53;4449537;32;32393;-68
2022/05/14 06:31:32;;;;;;;;;;;;;;;22.18;46.62;99871.69;4445206;32;33201;-66
2022/05/14 06:34:11;;;;;;;;;;;;;;;21.89;44.40;99879.78;4450248;32;32973;-65
2022/05/14 06:36:41;;;;;;;;;;;;;;;22.13;42.68;99873.28;4450466;32;34484;-66
2022/05/14 06:39:10;;;;;;;;;;;;;;;22.27;41.87;99872.44;4451114;32;32950;-67
2022/05/14 06:41:40;;;;;;;;;;;;;;;22.38;42.07;99873.88;4418486;32;963753;-65
2022/05/14 06:44:08;;;;;;;;;;;;;;;22.17;41.99;99871.87;4451031;32;33807;-65
2022/05/14 06:46:38;;;;;;;;;;;;;;;22.44;42.42;99876.72;4450569;32;33085;-65
2022/05/14 06:49:08;;;;;;;;;;;;;;;22.39;43.86;99881.03;4448646;32;35277;-65
2022/05/14 06:51:38;;;;;;;;;;;;;;;22.58;41.71;99883.19;4447764;32;33744;-69
2022/05/14 06:54:08;;;;;;;;;;;;;;;22.38;41.05;99890.25;4452211;32;33448;-65
2022/05/14 06:56:40;;;;;;;;;;;;;;;22.17;41.29;99894.53;4450040;32;33963;-66
2022/05/14 06:59:08;;;;;;;;;;;;;;;22.47;41.66;99892.69;4450681;32;33273;-66
2022/05/14 07:01:39;;;;;;;;;;;;;;;22.59;42.36;99893.03;4448359;32;32582;-66
2022/05/14 07:06:54;;;;;;;;;;;;;;;22.49;43.48;99898.78;4448319;32;34125;-68
2022/05/14 07:09:24;;;;;;;;;;;;;;;22.70;41.12;99899.94;4448094;32;34352;-65
2022/05/14 07:11:56;;;;;;;;;;;;;;;22.56;40.49;99898.88;4449326;32;32049;-66
2022/05/14 07:14:28;;;;;;;;;;;;;;;22.63;41.19;99899.84;4448066;32;32763;-66
2022/05/14 07:16:58;;;;;;;;;;;;;;;23.22;38.81;99899.75;4448395;32;32966;-66
2022/05/14 07:19:26;;;;;;;;;;;;;;;22.62;40.22;99909.03;4447700;32;32032;-66
2022/05/14 07:21:55;;;;;;;;;;;;;;;22.54;40.19;99904.53;4446225;32;34280;-68
2022/05/14 07:24:28;;;;;;;;;;;;;;;22.73;40.71;99899.56;4449246;32;33749;-67
2022/05/14 07:26:58;;;;;;;;;;;;;;;22.21;40.30;99905.91;4448621;32;34151;-64
2022/05/14 07:29:27;;;;;;;;;;;;;;;22.52;40.14;99903.03;4449242;32;34277;-68
2022/05/14 07:31:55;;;;;;;;;;;;;;;23.24;39.85;99902.28;4448635;32;32918;-68
2022/05/14 07:34:24;;;;;;;;;;;;;;;22.87;40.71;99906.84;4445966;32;33932;-68
2022/05/14 07:36:56;;;;;;;;;;;;;;;22.72;41.21;99900.56;4448577;32;34387;-65
2022/05/14 07:39:26;;;;;;;;;;;;;;;23.31;38.97;99902.37;4450337;32;34102;-67
2022/05/14 07:41:55;;;;;;;;;;;;;;;23.14;38.62;99899.84;4446608;32;33502;-68
2022/05/14 07:44:24;;;;;;;;;;;;;;;23.51;37.51;99894.37;4448699;32;34021;-67
2022/05/14 07:46:52;;;;;;;;;;;;;;;23.02;38.19;99898.69;4450518;32;34108;-67
2022/05/14 07:49:21;;;;;;;;;;;;;;;22.31;39.63;99895.56;4448052;32;33076;-66
2022/05/14 07:51:53;;;;;;;;;;;;;;;22.89;37.91;99907.53;4442185;32;33754;-68
2022/05/14 07:54:22;;;;;;;;;;;;;;;22.87;38.35;99906.00;4447082;32;32746;-68
2022/05/14 07:56:50;;;;;;;;;;;;;;;22.99;35.57;99899.06;4445355;32;34228;-69
2022/05/14 07:59:20;;;;;;;;;;;;;;;22.71;36.38;99905.19;4448328;32;35125;-66
2022/05/14 08:01:53;;;;;;;;;;;;;;;22.75;36.38;99911.09;4451937;32;33177;-66
2022/05/14 08:04:28;;;;;;;;;;;;;;;22.76;36.04;99899.12;4450176;32;33659;-66
2022/05/14 08:06:58;;;;;;;;;;;;;;;23.02;34.94;99902.25;4446327;32;32616;-65
2022/05/14 08:09:31;;;;;;;;;;;;;;;23.39;34.12;99900.34;4453217;32;34058;-66
2022/05/14 08:12:02;;;;;;;;;;;;;;;23.63;34.54;99901.84;4450147;32;32171;-65
2022/05/14 08:14:36;;;;;;;;;;;;;;;23.68;35.33;99899.41;4453952;32;34022;-69
2022/05/14 08:17:11;;;;;;;;;;;;;;;23.29;34.79;99907.16;4452794;32;33267;-66
2022/05/14 08:19:42;;;;;;;;;;;;;;;23.09;35.39;99901.50;4451219;32;34389;-68
2022/05/14 08:25:00;;;;;;;;;;;;;;;23.34;34.10;99907.41;4453274;32;32998;-67
2022/05/14 08:27:31;;;;;;;;;;;;;;;23.11;34.44;99899.41;4452101;32;34620;-67
2022/05/14 08:30:02;;;;;;;;;;;;;;;22.70;35.11;99903.50;4450178;32;32960;-66
2022/05/14 08:32:39;;;;;;;;;;;;;;;23.29;34.01;99907.16;4451098;32;32332;-68
2022/05/14 08:35:13;;;;;;;;;;;;;;;23.92;32.77;99906.34;4449139;32;33712;-68
2022/05/14 08:37:49;;;;;;;;;;;;;;;23.24;31.14;99908.59;4448265;32;34352;-69
2022/05/14 08:40:41;;;;;;;;;;;;;;;23.31;32.76;99903.22;4444305;32;33141;-69
2022/05/14 08:43:16;;;;;;;;;;;;;;;23.54;32.79;99899.47;4450050;32;31939;-69
2022/05/14 08:45:47;;;;;;;;;;;;;;;23.13;33.48;99898.16;4449759;32;32836;-69
2022/05/14 08:48:33;;;;;;;;;;;;;;;23.29;30.57;99897.09;4444303;32;34201;-68
2022/05/14 08:51:13;;;;;;;;;;;;;;;24.02;30.51;99894.25;4450187;32;33978;-66
2022/05/14 08:53:48;;;;;;;;;;;;;;;23.89;31.03;99890.34;4454270;32;34125;-70
2022/05/14 08:56:21;;;;;;;;;;;;;;;24.01;31.67;99898.00;4451488;32;33184;-70
2022/05/14 08:59:11;;;;;;;;;;;;;;;24.08;29.73;99894.28;4449208;32;35579;-68
2022/05/14 09:01:44;;;;;;;;;;;;;;;23.92;31.94;99891.84;4442368;32;32540;-67
2022/05/14 09:04:22;;;;;;;;;;;;;;;24.00;31.84;99897.16;4446420;32;32074;-67
2022/05/14 09:06:52;;;;;;;;;;;;;;;24.62;30.12;99890.88;4448505;32;34121;-70
2022/05/14 09:09:24;;;;;;;;;;;;;;;24.64;30.94;99896.13;4453123;32;33437;-67
2022/05/14 09:12:03;;;;;;;;;;;;;;;24.57;30.17;99895.25;4449903;32;33054;-66
2022/05/14 09:14:38;;;;;;;;;;;;;;;24.52;29.97;99893.13;4453271;32;32205;-65
2022/05/14 09:17:11;;;;;;;;;;;;;;;24.03;33.27;99894.03;4452164;32;33207;-65
2022/05/14 09:19:43;;;;;;;;;;;;;;;24.54;31.52;99892.94;4443222;32;35576;-67
2022/05/14 09:22:22;;;;;;;;;;;;;;;24.63;30.95;99889.81;4447848;32;33127;-67
2022/05/14 09:25:01;;;;;;;;;;;;;;;24.48;30.53;99888.25;4452019;32;32144;-64
2022/05/14 09:27:54;;;;;;;;;;;;;;;24.32;30.93;99901.16;4451583;32;33506;-66
2022/05/14 09:30:24;;;;;;;;;;;;;;;24.02;30.75;99891.50;4450361;32;34757;-68
2022/05/14 09:32:53;;;;;;;;;;;;;;;24.75;30.65;99895.56;4448027;32;35049;-70
2022/05/14 09:35:25;;;;;;;;;;;;;;;24.95;29.32;99895.66;4445374;32;34523;-67
2022/05/14 09:38:18;;;;;;;;;;;;;;;25.37;28.92;99896.44;4450050;32;35130;-67
2022/05/14 09:40:54;;;;;;;;;;;;;;;25.43;28.55;99886.56;4443199;32;34346;-67
2022/05/14 09:43:35;;;;;;;;;;;;;;;25.11;31.72;99888.97;4447766;32;33890;-69
2022/05/14 09:46:25;;;;;;;;;;;;;;;25.86;28.16;99886.19;4448967;32;34467;-67
2022/05/14 09:49:04;;;;;;;;;;;;;;;24.75;30.01;99881.88;4452901;32;34174;-68
2022/05/14 09:51:45;;;;;;;;;;;;;;;25.35;29.45;99873.88;4451738;32;33145;-69
2022/05/14 09:54:21;;;;;;;;;;;;;;;25.34;31.34;99883.16;4447177;32;33839;-69
2022/05/14 09:56:53;;;;;;;;;;;;;;;26.15;28.43;99883.03;4449576;32;32529;-67
2022/05/14 09:59:33;;;;;;;;;;;;;;;25.53;28.73;99871.41;4453701;32;33160;-67
2022/05/14 10:02:11;;;;;;;;;;;;;;;25.89;28.57;99867.44;4451444;32;33505;-66
2022/05/14 10:04:55;;;;;;;;;;;;;;;26.89;27.31;99872.72;4451673;32;35362;-68
2022/05/14 10:07:35;;;;;;;;;;;;;;;26.49;28.03;99867.38;4449738;32;35393;-66
2022/05/14 10:10:14;;;;;;;;;;;;;;;26.45;28.15;99868.81;4441852;32;33215;-69
2022/05/14 10:12:54;;;;;;;;;;;;;;;26.94;27.03;99876.50;4442104;32;35105;-67
2022/05/14 10:15:44;;;;;;;;;;;;;;;26.96;26.58;99865.28;4447320;32;35687;-69
2022/05/14 10:18:29;;;;;;;;;;;;;;;27.37;26.30;99864.87;4449025;32;32335;-68
2022/05/14 10:21:19;;;;;;;;;;;;;;;27.03;27.13;99868.84;4453700;32;33282;-67
2022/05/14 10:27:14;;;;;;;;;;;;;;;27.28;25.62;99855.19;4452639;32;35004;-70
2022/05/14 10:29:58;;;;;;;;;;;;;;;27.16;26.57;99854.25;4450391;32;34205;-67
2022/05/14 10:32:31;;;;;;;;;;;;;;;27.91;26.24;99848.84;4452227;32;33195;-66
2022/05/14 10:35:12;;;;;;;;;;;;;;;27.73;26.27;99843.25;4438086;32;34067;-67
2022/05/14 10:37:46;;;;;;;;;;;;;;;26.81;25.81;99857.34;4441919;32;34666;-66
2022/05/14 10:40:36;;;;;;;;;;;;;;;26.88;27.20;99854.56;4452968;32;32493;-66
2022/05/14 10:43:23;;;;;;;;;;;;;;;27.18;25.20;99852.09;4450987;32;35368;-67
2022/05/14 10:45:54;;;;;;;;;;;;;;;27.80;24.64;99847.69;4448505;32;35321;-65
2022/05/14 10:49:00;;;;;;;;;;;;;;;27.06;25.69;99856.56;4449465;32;34327;-68
2022/05/14 10:51:30;;;;;;;;;;;;;;;27.18;24.05;99857.59;4441488;32;33583;-68
2022/05/14 10:54:00;;;;;;;;;;;;;;;26.88;24.53;99854.56;4443208;32;33611;-67
2022/05/14 10:56:35;;;;;;;;;;;;;;;27.00;24.61;99838.22;4446358;32;34128;-68
2022/05/14 10:59:05;;;;;;;;;;;;;;;27.51;24.81;99843.66;4449982;32;33985;-67
2022/05/14 11:01:36;;;;;;;;;;;;;;;27.73;24.53;99837.75;4444520;32;33482;-66
2022/05/14 11:04:14;;;;;;;;;;;;;;;27.52;25.01;99845.31;4450226;32;33956;-67
2022/05/14 11:06:48;;;;;;;;;;;;;;;27.62;24.04;99837.41;4448203;32;35144;-70
2022/05/14 11:09:17;;;;;;;;;;;;;;;27.16;24.32;99837.75;4452787;32;33394;-67
2022/05/14 11:11:46;;;;;;;;;;;;;;;27.20;24.86;99838.16;4452748;32;33423;-66
2022/05/14 11:14:13;;;;;;;;;;;;;;;27.32;24.92;99830.88;4451148;32;33159;-68
2022/05/14 11:16:42;;;;;;;;;;;;;;;27.66;24.95;99832.31;4451653;32;32953;-66
2022/05/14 11:19:11;;;;;;;;;;;;;;;26.70;25.96;99836.88;4452041;32;32504;-68
2022/05/14 11:21:44;;;;;;;;;;;;;;;26.86;25.04;99832.78;4449344;32;33969;-68
2022/05/14 11:24:13;;;;;;;;;;;;;;;26.98;24.09;99826.63;4434410;32;32466;-69
2022/05/14 11:26:45;;;;;;;;;;;;;;;27.93;22.75;99830.22;4454637;32;34432;-68
2022/05/14 11:29:42;;;;;;;;;;;;;;;27.99;23.38;99823.78;4452171;32;34395;-67
2022/05/14 11:32:13;;;;;;;;;;;;;;;26.87;23.71;99818.03;4439442;32;31903;-70
2022/05/14 11:34:51;;;;;;;;;;;;;;;26.36;24.31;99815.25;4442997;32;34364;-67
2022/05/14 11:37:35;;;;;;;;;;;;;;;26.88;24.76;99825.19;4451054;32;34175;-71
2022/05/14 11:40:16;;;;;;;;;;;;;;;26.65;24.84;99822.16;4444923;32;33810;-68
2022/05/14 11:42:46;;;;;;;;;;;;;;;26.49;23.35;99820.72;4451736;32;32058;-68
2022/05/14 11:45:15;;;;;;;;;;;;;;;27.06;21.95;99820.84;4445382;32;35124;-70
2022/05/14 11:47:44;;;;;;;;;;;;;;;26.87;22.63;99820.78;4452606;32;33062;-66
2022/05/14 11:50:13;;;;;;;;;;;;;;;26.66;23.55;99815.59;4451015;32;33046;-69
2022/05/14 11:52:50;;;;;;;;;;;;;;;27.55;23.28;99811.91;4451791;32;34137;-68
2022/05/14 11:55:19;;;;;;;;;;;;;;;26.97;23.81;99820.28;4449727;32;34344;-69
2022/05/14 11:57:49;;;;;;;;;;;;;;;26.92;23.78;99811.84;4453040;32;34333;-69
2022/05/14 12:00:18;;;;;;;;;;;;;;;26.63;24.67;99814.09;4448194;32;34515;-67
2022/05/14 12:02:48;;;;;;;;;;;;;;;26.34;24.71;99812.72;4444306;32;33263;-68
2022/05/14 12:05:25;;;;;;;;;;;;;;;26.50;24.99;99818.81;4450098;32;33131;-69
2022/05/14 12:07:53;;;;;;;;;;;;;;;26.21;25.17;99818.25;4450991;32;32690;-67
2022/05/14 12:10:24;;;;;;;;;;;;;;;25.86;26.35;99809.44;4447391;32;34054;-67
2022/05/14 12:12:55;;;;;;;;;;;;;;;26.54;26.37;99811.81;4445898;32;32887;-66
2022/05/14 12:15:24;;;;;;;;;;;;;;;27.37;25.62;99811.81;4447889;32;35271;-69
2022/05/14 12:17:53;;;;;;;;;;;;;;;26.42;25.42;99804.25;4446606;32;33999;-70
2022/05/14 12:20:29;;;;;;;;;;;;;;;26.21;24.63;99802.63;4451239;32;34911;-69
2022/05/14 12:22:59;;;;;;;;;;;;;;;26.87;24.20;99811.66;4447875;32;32995;-67
2022/05/14 12:25:35;;;;;;;;;;;;;;;26.46;24.81;99808.25;4452035;32;33159;-69
2022/05/14 12:28:03;;;;;;;;;;;;;;;26.04;25.35;99806.88;4451813;32;33160;-68
2022/05/14 12:33:20;;;;;;;;;;;;;;;26.77;24.39;99798.41;4437096;32;32955;-69
2022/05/14 12:35:52;;;;;;;;;;;;;;;25.89;24.68;99795.31;4457475;32;34095;-68
2022/05/14 12:38:26;;;;;;;;;;;;;;;26.13;24.14;99813.84;4444275;32;34466;-68
2022/05/14 12:40:54;;;;;;;;;;;;;;;26.02;25.18;99800.75;4452831;32;33260;-67
2022/05/14 12:43:23;;;;;;;;;;;;;;;26.10;25.01;99797.81;4443313;32;33510;-69
2022/05/14 12:45:59;;;;;;;;;;;;;;;25.69;25.51;99800.78;4466004;32;33664;-67
2022/05/14 12:48:28;;;;;;;;;;;;;;;26.51;24.11;99788.41;4450498;32;34251;-66
2022/05/14 12:50:57;;;;;;;;;;;;;;;25.37;24.99;99794.25;4429835;32;33688;-67
2022/05/14 12:53:52;;;;;;;;;;;;;;;25.78;24.76;99808.56;4452363;32;32173;-68
2022/05/14 12:56:21;;;;;;;;;;;;;;;26.08;24.41;99794.41;4449840;32;34114;-66
2022/05/14 12:58:49;;;;;;;;;;;;;;;25.31;26.39;99784.97;4438416;32;32797;-66
2022/05/14 13:01:18;;;;;;;;;;;;;;;25.18;26.29;99769.34;4450208;32;33881;-68
2022/05/14 13:03:50;;;;;;;;;;;;;;;25.31;26.39;99776.75;4450703;32;32082;-68
2022/05/14 13:06:22;;;;;;;;;;;;;;;25.66;25.78;99782.84;4441535;32;34184;-68
2022/05/14 13:08:51;;;;;;;;;;;;;;;26.19;25.73;99776.44;4451638;32;34481;-69
2022/05/14 13:11:23;;;;;;;;;;;;;;;25.37;26.49;99769.59;4451991;32;33653;-67
2022/05/14 13:13:52;;;;;;;;;;;;;;;25.69;26.81;99768.72;4450847;32;33401;-66
2022/05/14 13:16:20;;;;;;;;;;;;;;;25.32;27.08;99771.03;4450910;32;32513;-67
2022/05/14 13:19:17;;;;;;;;;;;;;;;25.95;27.02;99770.63;4447697;32;34307;-69
2022/05/14 13:21:50;;;;;;;;;;;;;;;26.09;26.73;99762.34;4445368;32;32911;-69
2022/05/14 13:24:20;;;;;;;;;;;;;;;25.91;26.22;99746.59;4449848;32;32353;-70
2022/05/14 13:26:49;;;;;;;;;;;;;;;25.68;25.39;99752.47;4448325;32;34028;-68
2022/05/14 13:29:23;;;;;;;;;;;;;;;25.95;26.38;99756.91;4438414;32;33193;-70
2022/05/14 13:31:51;;;;;;;;;;;;;;;25.98;26.04;99755.63;4448527;32;32767;-68
2022/05/14 13:37:16;;;;;;;;;;;;;;;26.86;26.05;99735.84;4451814;32;34295;-68